sensor_id;sensor_type;location;lat;lon;timestamp;P1;durP1;ratioP1;P2;durP2;ratioP2
37407;SDS011;24866;50.248;8.252;2023-04-06T00:00:40;6.55;;;3.60;;
37407;SDS011;24866;50.248;8.252;2023-04-06T00:03:10;6.45;;;3.30;;
37407;SDS011;24866;50.248;8.252;2023-04-06T00:05:40;5.85;;;3.20;;
37407;SDS011;24866;50.248;8.252;2023-04-06T00:08:10;5.57;;;2.65;;
37407;SDS011;24866;50.248;8.252;2023-04-06T00:10:40;5.30;;;3.15;;
37407;SDS011;24866;50.248;8.252;2023-04-06T00:13:10;5.70;;;2.97;;
37407;SDS011;24866;50.248;8.252;2023-04-06T00:15:42;5.55;;;2.95;;
37407;SDS011;24866;50.248;8.252;2023-04-06T00:18:12;7.40;;;3.30;;
37407;SDS011;24866;50.248;8.252;2023-04-06T00:20:42;6.03;;;2.92;;
37407;SDS011;24866;50.248;8.252;2023-04-06T00:23:12;6.90;;;3.42;;
37407;SDS011;24866;50.248;8.252;2023-04-06T00:25:42;5.28;;;3.28;;
37407;SDS011;24866;50.248;8.252;2023-04-06T00:28:12;5.30;;;2.83;;
37407;SDS011;24866;50.248;8.252;2023-04-06T00:30:44;5.32;;;2.83;;
37407;SDS011;24866;50.248;8.252;2023-04-06T00:33:14;7.85;;;3.15;;
37407;SDS011;24866;50.248;8.252;2023-04-06T00:35:44;7.18;;;2.70;;
37407;SDS011;24866;50.248;8.252;2023-04-06T00:38:14;4.32;;;2.72;;
37407;SDS011;24866;50.248;8.252;2023-04-06T00:40:44;5.95;;;3.10;;
37407;SDS011;24866;50.248;8.252;2023-04-06T00:43:15;7.97;;;3.08;;
37407;SDS011;24866;50.248;8.252;2023-04-06T00:45:46;8.45;;;3.78;;
37407;SDS011;24866;50.248;8.252;2023-04-06T00:48:16;6.35;;;3.00;;
37407;SDS011;24866;50.248;8.252;2023-04-06T00:50:46;4.82;;;2.65;;
37407;SDS011;24866;50.248;8.252;2023-04-06T00:53:16;6.95;;;2.97;;
37407;SDS011;24866;50.248;8.252;2023-04-06T00:55:46;5.22;;;2.63;;
37407;SDS011;24866;50.248;8.252;2023-04-06T00:58:16;4.00;;;2.28;;
37407;SDS011;24866;50.248;8.252;2023-04-06T01:00:48;6.57;;;2.47;;
37407;SDS011;24866;50.248;8.252;2023-04-06T01:03:18;3.80;;;2.25;;
37407;SDS011;24866;50.248;8.252;2023-04-06T01:05:48;4.75;;;2.85;;
37407;SDS011;24866;50.248;8.252;2023-04-06T01:08:20;6.00;;;2.88;;
37407;SDS011;24866;50.248;8.252;2023-04-06T01:10:50;5.05;;;2.28;;
37407;SDS011;24866;50.248;8.252;2023-04-06T01:13:20;6.60;;;3.33;;
37407;SDS011;24866;50.248;8.252;2023-04-06T01:15:51;5.32;;;2.40;;
37407;SDS011;24866;50.248;8.252;2023-04-06T01:18:25;5.90;;;2.63;;
37407;SDS011;24866;50.248;8.252;2023-04-06T01:20:55;6.57;;;2.78;;
37407;SDS011;24866;50.248;8.252;2023-04-06T01:23:27;6.50;;;2.78;;
37407;SDS011;24866;50.248;8.252;2023-04-06T01:25:58;5.47;;;2.30;;
37407;SDS011;24866;50.248;8.252;2023-04-06T01:28:28;5.72;;;2.10;;
37407;SDS011;24866;50.248;8.252;2023-04-06T01:30:58;5.20;;;2.67;;
37407;SDS011;24866;50.248;8.252;2023-04-06T01:33:28;4.88;;;2.30;;
37407;SDS011;24866;50.248;8.252;2023-04-06T01:35:58;5.28;;;2.53;;
37407;SDS011;24866;50.248;8.252;2023-04-06T01:38:29;4.63;;;2.30;;
37407;SDS011;24866;50.248;8.252;2023-04-06T01:40:59;6.72;;;3.03;;
37407;SDS011;24866;50.248;8.252;2023-04-06T01:43:29;5.25;;;2.38;;
37407;SDS011;24866;50.248;8.252;2023-04-06T01:46:00;4.97;;;2.50;;
37407;SDS011;24866;50.248;8.252;2023-04-06T01:48:30;6.22;;;2.55;;
37407;SDS011;24866;50.248;8.252;2023-04-06T01:51:00;8.00;;;2.30;;
37407;SDS011;24866;50.248;8.252;2023-04-06T01:53:32;4.38;;;2.55;;
37407;SDS011;24866;50.248;8.252;2023-04-06T01:56:02;7.40;;;2.35;;
37407;SDS011;24866;50.248;8.252;2023-04-06T01:58:32;4.68;;;2.38;;
37407;SDS011;24866;50.248;8.252;2023-04-06T02:01:03;4.00;;;2.55;;
37407;SDS011;24866;50.248;8.252;2023-04-06T02:03:33;4.82;;;2.33;;
37407;SDS011;24866;50.248;8.252;2023-04-06T02:06:03;4.72;;;2.47;;
37407;SDS011;24866;50.248;8.252;2023-04-06T02:08:35;6.35;;;2.40;;
37407;SDS011;24866;50.248;8.252;2023-04-06T02:11:05;5.35;;;2.42;;
37407;SDS011;24866;50.248;8.252;2023-04-06T02:13:35;5.30;;;2.80;;
37407;SDS011;24866;50.248;8.252;2023-04-06T02:16:05;5.50;;;2.55;;
37407;SDS011;24866;50.248;8.252;2023-04-06T02:18:36;3.83;;;2.28;;
37407;SDS011;24866;50.248;8.252;2023-04-06T02:21:06;6.63;;;2.63;;
37407;SDS011;24866;50.248;8.252;2023-04-06T02:23:37;5.25;;;2.55;;
37407;SDS011;24866;50.248;8.252;2023-04-06T02:26:07;4.00;;;2.40;;
37407;SDS011;24866;50.248;8.252;2023-04-06T02:28:37;4.60;;;2.45;;
37407;SDS011;24866;50.248;8.252;2023-04-06T02:31:07;5.25;;;2.65;;
37407;SDS011;24866;50.248;8.252;2023-04-06T02:33:39;4.40;;;2.35;;
37407;SDS011;24866;50.248;8.252;2023-04-06T02:36:09;5.05;;;2.75;;
37407;SDS011;24866;50.248;8.252;2023-04-06T02:38:40;4.80;;;2.58;;
37407;SDS011;24866;50.248;8.252;2023-04-06T02:41:10;5.18;;;2.53;;
37407;SDS011;24866;50.248;8.252;2023-04-06T02:43:40;5.25;;;2.50;;
37407;SDS011;24866;50.248;8.252;2023-04-06T02:46:10;4.50;;;2.28;;
37407;SDS011;24866;50.248;8.252;2023-04-06T02:48:41;4.93;;;2.70;;
37407;SDS011;24866;50.248;8.252;2023-04-06T02:51:11;6.22;;;2.72;;
37407;SDS011;24866;50.248;8.252;2023-04-06T02:53:42;4.43;;;2.50;;
37407;SDS011;24866;50.248;8.252;2023-04-06T02:56:12;5.28;;;3.10;;
37407;SDS011;24866;50.248;8.252;2023-04-06T02:58:42;5.70;;;2.90;;
37407;SDS011;24866;50.248;8.252;2023-04-06T03:01:12;6.70;;;2.95;;
37407;SDS011;24866;50.248;8.252;2023-04-06T03:03:42;4.95;;;3.08;;
37407;SDS011;24866;50.248;8.252;2023-04-06T03:06:12;7.32;;;3.20;;
37407;SDS011;24866;50.248;8.252;2023-04-06T03:08:44;4.85;;;2.80;;
37407;SDS011;24866;50.248;8.252;2023-04-06T03:11:15;6.15;;;2.78;;
37407;SDS011;24866;50.248;8.252;2023-04-06T03:13:45;11.77;;;3.03;;
37407;SDS011;24866;50.248;8.252;2023-04-06T03:16:15;6.82;;;3.08;;
37407;SDS011;24866;50.248;8.252;2023-04-06T03:18:45;4.35;;;2.47;;
37407;SDS011;24866;50.248;8.252;2023-04-06T03:21:15;5.47;;;2.78;;
37407;SDS011;24866;50.248;8.252;2023-04-06T03:23:48;6.47;;;2.40;;
37407;SDS011;24866;50.248;8.252;2023-04-06T03:26:19;6.10;;;2.85;;
37407;SDS011;24866;50.248;8.252;2023-04-06T03:28:50;6.55;;;3.08;;
37407;SDS011;24866;50.248;8.252;2023-04-06T03:31:20;7.53;;;2.72;;
37407;SDS011;24866;50.248;8.252;2023-04-06T03:33:50;6.20;;;2.90;;
37407;SDS011;24866;50.248;8.252;2023-04-06T03:36:20;6.03;;;2.95;;
37407;SDS011;24866;50.248;8.252;2023-04-06T03:38:51;6.55;;;3.25;;
37407;SDS011;24866;50.248;8.252;2023-04-06T03:41:22;4.93;;;2.92;;
37407;SDS011;24866;50.248;8.252;2023-04-06T03:43:52;4.78;;;2.85;;
37407;SDS011;24866;50.248;8.252;2023-04-06T03:46:22;5.75;;;3.00;;
37407;SDS011;24866;50.248;8.252;2023-04-06T03:48:52;4.68;;;2.45;;
37407;SDS011;24866;50.248;8.252;2023-04-06T03:51:22;6.80;;;3.25;;
37407;SDS011;24866;50.248;8.252;2023-04-06T03:53:54;7.80;;;3.10;;
37407;SDS011;24866;50.248;8.252;2023-04-06T03:56:24;6.43;;;3.33;;
37407;SDS011;24866;50.248;8.252;2023-04-06T03:58:54;6.45;;;3.47;;
37407;SDS011;24866;50.248;8.252;2023-04-06T04:01:24;9.05;;;3.47;;
37407;SDS011;24866;50.248;8.252;2023-04-06T04:03:54;6.90;;;2.58;;
37407;SDS011;24866;50.248;8.252;2023-04-06T04:06:24;6.50;;;3.20;;
37407;SDS011;24866;50.248;8.252;2023-04-06T04:08:56;7.45;;;2.88;;
37407;SDS011;24866;50.248;8.252;2023-04-06T04:11:26;5.18;;;3.03;;
37407;SDS011;24866;50.248;8.252;2023-04-06T04:13:57;5.97;;;3.00;;
37407;SDS011;24866;50.248;8.252;2023-04-06T04:16:27;7.35;;;3.13;;
37407;SDS011;24866;50.248;8.252;2023-04-06T04:18:57;7.95;;;3.03;;
37407;SDS011;24866;50.248;8.252;2023-04-06T04:21:29;5.55;;;3.10;;
37407;SDS011;24866;50.248;8.252;2023-04-06T04:24:01;6.20;;;3.22;;
37407;SDS011;24866;50.248;8.252;2023-04-06T04:26:31;9.07;;;3.80;;
37407;SDS011;24866;50.248;8.252;2023-04-06T04:29:02;5.25;;;3.00;;
37407;SDS011;24866;50.248;8.252;2023-04-06T04:31:32;7.30;;;3.60;;
37407;SDS011;24866;50.248;8.252;2023-04-06T04:34:02;6.68;;;3.15;;
37407;SDS011;24866;50.248;8.252;2023-04-06T04:36:34;5.85;;;3.40;;
37407;SDS011;24866;50.248;8.252;2023-04-06T04:39:06;7.63;;;3.40;;
37407;SDS011;24866;50.248;8.252;2023-04-06T04:41:36;6.30;;;3.17;;
37407;SDS011;24866;50.248;8.252;2023-04-06T04:44:07;7.32;;;3.75;;
37407;SDS011;24866;50.248;8.252;2023-04-06T04:46:37;5.47;;;2.97;;
37407;SDS011;24866;50.248;8.252;2023-04-06T04:49:09;9.07;;;4.50;;
37407;SDS011;24866;50.248;8.252;2023-04-06T04:51:39;5.40;;;3.05;;
37407;SDS011;24866;50.248;8.252;2023-04-06T04:54:10;7.30;;;3.72;;
37407;SDS011;24866;50.248;8.252;2023-04-06T04:56:40;8.70;;;4.57;;
37407;SDS011;24866;50.248;8.252;2023-04-06T04:59:11;8.25;;;4.18;;
37407;SDS011;24866;50.248;8.252;2023-04-06T05:01:41;8.10;;;3.65;;
37407;SDS011;24866;50.248;8.252;2023-04-06T05:04:13;14.73;;;7.43;;
37407;SDS011;24866;50.248;8.252;2023-04-06T05:06:49;25.80;;;13.57;;
37407;SDS011;24866;50.248;8.252;2023-04-06T05:09:21;21.35;;;12.13;;
37407;SDS011;24866;50.248;8.252;2023-04-06T05:11:51;16.20;;;8.63;;
37407;SDS011;24866;50.248;8.252;2023-04-06T05:14:21;10.55;;;6.15;;
37407;SDS011;24866;50.248;8.252;2023-04-06T05:16:51;10.48;;;5.57;;
37407;SDS011;24866;50.248;8.252;2023-04-06T05:19:21;10.00;;;5.88;;
37407;SDS011;24866;50.248;8.252;2023-04-06T05:21:51;11.15;;;5.82;;
37407;SDS011;24866;50.248;8.252;2023-04-06T05:24:22;9.50;;;5.38;;
37407;SDS011;24866;50.248;8.252;2023-04-06T05:26:53;9.18;;;4.97;;
37407;SDS011;24866;50.248;8.252;2023-04-06T05:29:24;8.80;;;4.97;;
37407;SDS011;24866;50.248;8.252;2023-04-06T05:31:54;10.02;;;5.22;;
37407;SDS011;24866;50.248;8.252;2023-04-06T05:34:24;14.10;;;6.22;;
37407;SDS011;24866;50.248;8.252;2023-04-06T05:36:54;11.30;;;6.30;;
37407;SDS011;24866;50.248;8.252;2023-04-06T05:39:25;13.82;;;7.03;;
37407;SDS011;24866;50.248;8.252;2023-04-06T05:41:55;13.45;;;7.03;;
37407;SDS011;24866;50.248;8.252;2023-04-06T05:44:25;9.63;;;4.70;;
37407;SDS011;24866;50.248;8.252;2023-04-06T05:46:56;7.95;;;4.78;;
37407;SDS011;24866;50.248;8.252;2023-04-06T05:49:26;8.98;;;5.20;;
37407;SDS011;24866;50.248;8.252;2023-04-06T05:51:56;10.13;;;5.05;;
37407;SDS011;24866;50.248;8.252;2023-04-06T05:54:30;10.00;;;5.57;;
37407;SDS011;24866;50.248;8.252;2023-04-06T05:57:01;10.63;;;5.43;;
37407;SDS011;24866;50.248;8.252;2023-04-06T05:59:31;28.15;;;12.05;;
37407;SDS011;24866;50.248;8.252;2023-04-06T06:02:02;72.93;;;29.13;;
37407;SDS011;24866;50.248;8.252;2023-04-06T06:04:32;67.82;;;30.65;;
37407;SDS011;24866;50.248;8.252;2023-04-06T06:07:02;47.65;;;19.83;;
37407;SDS011;24866;50.248;8.252;2023-04-06T06:09:34;112.00;;;53.47;;
37407;SDS011;24866;50.248;8.252;2023-04-06T06:12:05;23.63;;;11.70;;
37407;SDS011;24866;50.248;8.252;2023-04-06T06:14:35;19.88;;;9.50;;
37407;SDS011;24866;50.248;8.252;2023-04-06T06:17:05;14.10;;;7.55;;
37407;SDS011;24866;50.248;8.252;2023-04-06T06:19:35;13.07;;;7.50;;
37407;SDS011;24866;50.248;8.252;2023-04-06T06:22:05;10.63;;;6.30;;
37407;SDS011;24866;50.248;8.252;2023-04-06T06:24:36;10.60;;;5.90;;
37407;SDS011;24866;50.248;8.252;2023-04-06T06:27:06;16.13;;;10.05;;
37407;SDS011;24866;50.248;8.252;2023-04-06T06:29:37;14.05;;;8.43;;
37407;SDS011;24866;50.248;8.252;2023-04-06T06:32:07;12.85;;;6.43;;
37407;SDS011;24866;50.248;8.252;2023-04-06T06:34:37;9.45;;;5.80;;
37407;SDS011;24866;50.248;8.252;2023-04-06T06:37:07;11.38;;;6.28;;
37407;SDS011;24866;50.248;8.252;2023-04-06T06:39:39;14.13;;;5.65;;
37407;SDS011;24866;50.248;8.252;2023-04-06T06:42:09;20.60;;;7.88;;
37407;SDS011;24866;50.248;8.252;2023-04-06T06:44:39;15.70;;;6.75;;
37407;SDS011;24866;50.248;8.252;2023-04-06T06:47:09;12.90;;;6.95;;
37407;SDS011;24866;50.248;8.252;2023-04-06T06:49:39;13.25;;;6.18;;
37407;SDS011;24866;50.248;8.252;2023-04-06T06:52:09;11.50;;;6.45;;
37407;SDS011;24866;50.248;8.252;2023-04-06T06:54:41;11.90;;;6.57;;
37407;SDS011;24866;50.248;8.252;2023-04-06T06:57:11;14.13;;;5.83;;
37407;SDS011;24866;50.248;8.252;2023-04-06T06:59:41;13.52;;;7.45;;
37407;SDS011;24866;50.248;8.252;2023-04-06T07:02:12;15.23;;;7.10;;
37407;SDS011;24866;50.248;8.252;2023-04-06T07:04:42;11.65;;;6.90;;
37407;SDS011;24866;50.248;8.252;2023-04-06T07:07:12;13.52;;;6.93;;
37407;SDS011;24866;50.248;8.252;2023-04-06T07:09:43;11.68;;;6.00;;
37407;SDS011;24866;50.248;8.252;2023-04-06T07:12:13;10.43;;;5.80;;
37407;SDS011;24866;50.248;8.252;2023-04-06T07:14:44;10.43;;;6.07;;
37407;SDS011;24866;50.248;8.252;2023-04-06T07:17:14;10.70;;;7.20;;
37407;SDS011;24866;50.248;8.252;2023-04-06T07:19:44;10.23;;;6.35;;
37407;SDS011;24866;50.248;8.252;2023-04-06T07:22:14;11.68;;;6.70;;
37407;SDS011;24866;50.248;8.252;2023-04-06T07:24:46;9.93;;;5.47;;
37407;SDS011;24866;50.248;8.252;2023-04-06T07:27:16;11.65;;;5.97;;
37407;SDS011;24866;50.248;8.252;2023-04-06T07:29:46;9.98;;;5.85;;
37407;SDS011;24866;50.248;8.252;2023-04-06T07:32:17;13.55;;;6.78;;
37407;SDS011;24866;50.248;8.252;2023-04-06T07:34:47;10.40;;;6.03;;
37407;SDS011;24866;50.248;8.252;2023-04-06T07:37:17;12.32;;;6.00;;
37407;SDS011;24866;50.248;8.252;2023-04-06T07:39:49;10.80;;;6.88;;
37407;SDS011;24866;50.248;8.252;2023-04-06T07:42:19;12.57;;;6.00;;
37407;SDS011;24866;50.248;8.252;2023-04-06T07:44:49;10.73;;;6.63;;
37407;SDS011;24866;50.248;8.252;2023-04-06T07:47:19;11.55;;;6.88;;
37407;SDS011;24866;50.248;8.252;2023-04-06T07:49:49;10.30;;;5.70;;
37407;SDS011;24866;50.248;8.252;2023-04-06T07:52:19;11.23;;;5.70;;
37407;SDS011;24866;50.248;8.252;2023-04-06T07:54:50;11.73;;;6.72;;
37407;SDS011;24866;50.248;8.252;2023-04-06T07:57:23;8.80;;;5.82;;
37407;SDS011;24866;50.248;8.252;2023-04-06T07:59:53;14.38;;;7.20;;
37407;SDS011;24866;50.248;8.252;2023-04-06T08:02:24;11.10;;;6.60;;
37407;SDS011;24866;50.248;8.252;2023-04-06T08:04:54;9.90;;;6.30;;
37407;SDS011;24866;50.248;8.252;2023-04-06T08:07:25;11.52;;;6.60;;
37407;SDS011;24866;50.248;8.252;2023-04-06T08:09:56;11.07;;;6.97;;
37407;SDS011;24866;50.248;8.252;2023-04-06T08:12:26;11.35;;;6.50;;
37407;SDS011;24866;50.248;8.252;2023-04-06T08:14:57;10.13;;;6.00;;
37407;SDS011;24866;50.248;8.252;2023-04-06T08:17:27;11.30;;;6.50;;
37407;SDS011;24866;50.248;8.252;2023-04-06T08:19:59;11.23;;;5.63;;
37407;SDS011;24866;50.248;8.252;2023-04-06T08:22:30;10.82;;;6.15;;
37407;SDS011;24866;50.248;8.252;2023-04-06T08:25:02;10.48;;;5.78;;
37407;SDS011;24866;50.248;8.252;2023-04-06T08:27:32;11.90;;;6.50;;
37407;SDS011;24866;50.248;8.252;2023-04-06T08:30:03;10.57;;;6.60;;
37407;SDS011;24866;50.248;8.252;2023-04-06T08:32:33;9.55;;;6.13;;
37407;SDS011;24866;50.248;8.252;2023-04-06T08:35:04;9.77;;;6.05;;
37407;SDS011;24866;50.248;8.252;2023-04-06T08:37:35;10.10;;;6.35;;
37407;SDS011;24866;50.248;8.252;2023-04-06T08:40:08;10.18;;;5.65;;
37407;SDS011;24866;50.248;8.252;2023-04-06T08:42:39;11.68;;;6.25;;
37407;SDS011;24866;50.248;8.252;2023-04-06T08:45:13;12.90;;;6.75;;
37407;SDS011;24866;50.248;8.252;2023-04-06T08:50:17;9.68;;;5.88;;
37407;SDS011;24866;50.248;8.252;2023-04-06T08:52:48;12.13;;;6.05;;
37407;SDS011;24866;50.248;8.252;2023-04-06T08:55:20;10.15;;;6.57;;
37407;SDS011;24866;50.248;8.252;2023-04-06T08:57:50;11.60;;;6.97;;
37407;SDS011;24866;50.248;8.252;2023-04-06T09:00:23;12.50;;;6.30;;
37407;SDS011;24866;50.248;8.252;2023-04-06T09:02:57;14.48;;;6.93;;
37407;SDS011;24866;50.248;8.252;2023-04-06T09:05:28;13.30;;;6.75;;
37407;SDS011;24866;50.248;8.252;2023-04-06T09:07:59;12.75;;;7.00;;
37407;SDS011;24866;50.248;8.252;2023-04-06T09:10:31;10.88;;;6.15;;
37407;SDS011;24866;50.248;8.252;2023-04-06T09:13:03;13.13;;;7.43;;
37407;SDS011;24866;50.248;8.252;2023-04-06T09:15:35;11.07;;;6.70;;
37407;SDS011;24866;50.248;8.252;2023-04-06T09:18:07;14.15;;;7.25;;
37407;SDS011;24866;50.248;8.252;2023-04-06T09:20:37;13.43;;;6.97;;
37407;SDS011;24866;50.248;8.252;2023-04-06T09:23:17;13.43;;;6.53;;
37407;SDS011;24866;50.248;8.252;2023-04-06T09:25:50;13.68;;;7.50;;
37407;SDS011;24866;50.248;8.252;2023-04-06T09:28:20;12.38;;;7.65;;
37407;SDS011;24866;50.248;8.252;2023-04-06T09:30:50;12.10;;;7.18;;
37407;SDS011;24866;50.248;8.252;2023-04-06T09:33:22;11.07;;;7.10;;
37407;SDS011;24866;50.248;8.252;2023-04-06T09:35:52;18.87;;;7.87;;
37407;SDS011;24866;50.248;8.252;2023-04-06T09:38:22;15.23;;;7.18;;
37407;SDS011;24866;50.248;8.252;2023-04-06T09:40:54;14.15;;;7.20;;
37407;SDS011;24866;50.248;8.252;2023-04-06T09:43:24;13.15;;;6.78;;
37407;SDS011;24866;50.248;8.252;2023-04-06T09:45:55;12.25;;;7.05;;
37407;SDS011;24866;50.248;8.252;2023-04-06T09:48:25;13.70;;;7.15;;
37407;SDS011;24866;50.248;8.252;2023-04-06T09:50:59;9.93;;;6.80;;
37407;SDS011;24866;50.248;8.252;2023-04-06T09:53:31;16.17;;;7.20;;
37407;SDS011;24866;50.248;8.252;2023-04-06T09:56:08;14.75;;;7.30;;
37407;SDS011;24866;50.248;8.252;2023-04-06T09:58:41;11.57;;;6.38;;
37407;SDS011;24866;50.248;8.252;2023-04-06T10:01:16;12.75;;;6.43;;
37407;SDS011;24866;50.248;8.252;2023-04-06T10:03:52;16.27;;;7.35;;
37407;SDS011;24866;50.248;8.252;2023-04-06T10:06:28;13.70;;;7.72;;
37407;SDS011;24866;50.248;8.252;2023-04-06T10:09:04;13.77;;;6.78;;
37407;SDS011;24866;50.248;8.252;2023-04-06T10:14:07;12.68;;;7.07;;
37407;SDS011;24866;50.248;8.252;2023-04-06T10:16:40;13.45;;;6.85;;
37407;SDS011;24866;50.248;8.252;2023-04-06T10:19:13;14.88;;;7.78;;
37407;SDS011;24866;50.248;8.252;2023-04-06T10:21:47;12.88;;;7.30;;
37407;SDS011;24866;50.248;8.252;2023-04-06T10:24:22;12.15;;;7.43;;
37407;SDS011;24866;50.248;8.252;2023-04-06T10:27:01;10.90;;;6.60;;
37407;SDS011;24866;50.248;8.252;2023-04-06T10:29:41;12.95;;;7.25;;
37407;SDS011;24866;50.248;8.252;2023-04-06T10:32:14;10.82;;;6.75;;
37407;SDS011;24866;50.248;8.252;2023-04-06T10:34:44;12.73;;;6.00;;
37407;SDS011;24866;50.248;8.252;2023-04-06T10:37:15;13.05;;;7.03;;
37407;SDS011;24866;50.248;8.252;2023-04-06T10:39:51;12.68;;;7.32;;
37407;SDS011;24866;50.248;8.252;2023-04-06T10:42:37;15.15;;;7.10;;
37407;SDS011;24866;50.248;8.252;2023-04-06T10:45:18;11.80;;;6.25;;
37407;SDS011;24866;50.248;8.252;2023-04-06T10:47:49;12.27;;;7.45;;
37407;SDS011;24866;50.248;8.252;2023-04-06T10:50:21;11.55;;;7.35;;
37407;SDS011;24866;50.248;8.252;2023-04-06T10:52:58;13.57;;;7.20;;
37407;SDS011;24866;50.248;8.252;2023-04-06T10:55:29;11.85;;;6.50;;
37407;SDS011;24866;50.248;8.252;2023-04-06T10:58:01;12.23;;;6.60;;
37407;SDS011;24866;50.248;8.252;2023-04-06T11:00:35;9.50;;;6.47;;
37407;SDS011;24866;50.248;8.252;2023-04-06T11:03:12;11.20;;;6.57;;
37407;SDS011;24866;50.248;8.252;2023-04-06T11:05:43;12.35;;;7.68;;
37407;SDS011;24866;50.248;8.252;2023-04-06T11:08:24;12.98;;;6.70;;
37407;SDS011;24866;50.248;8.252;2023-04-06T11:13:38;13.13;;;6.88;;
37407;SDS011;24866;50.248;8.252;2023-04-06T11:16:15;14.02;;;6.82;;
37407;SDS011;24866;50.248;8.252;2023-04-06T11:18:47;9.65;;;5.93;;
37407;SDS011;24866;50.248;8.252;2023-04-06T11:21:32;12.48;;;7.50;;
37407;SDS011;24866;50.248;8.252;2023-04-06T11:24:08;11.10;;;6.53;;
37407;SDS011;24866;50.248;8.252;2023-04-06T11:26:39;12.85;;;7.45;;
37407;SDS011;24866;50.248;8.252;2023-04-06T11:29:13;12.30;;;6.95;;
37407;SDS011;24866;50.248;8.252;2023-04-06T11:31:45;14.85;;;8.35;;
37407;SDS011;24866;50.248;8.252;2023-04-06T11:34:17;12.40;;;7.40;;
37407;SDS011;24866;50.248;8.252;2023-04-06T11:36:48;11.98;;;7.10;;
37407;SDS011;24866;50.248;8.252;2023-04-06T11:39:25;17.92;;;8.27;;
37407;SDS011;24866;50.248;8.252;2023-04-06T11:41:57;13.50;;;7.75;;
37407;SDS011;24866;50.248;8.252;2023-04-06T11:44:31;13.20;;;8.20;;
37407;SDS011;24866;50.248;8.252;2023-04-06T11:47:02;13.48;;;7.45;;
37407;SDS011;24866;50.248;8.252;2023-04-06T11:49:36;12.63;;;8.00;;
37407;SDS011;24866;50.248;8.252;2023-04-06T11:52:14;13.85;;;7.80;;
37407;SDS011;24866;50.248;8.252;2023-04-06T11:54:45;14.10;;;8.38;;
37407;SDS011;24866;50.248;8.252;2023-04-06T11:57:16;14.70;;;8.18;;
37407;SDS011;24866;50.248;8.252;2023-04-06T11:59:49;13.23;;;8.02;;
37407;SDS011;24866;50.248;8.252;2023-04-06T12:02:19;12.30;;;8.70;;
37407;SDS011;24866;50.248;8.252;2023-04-06T12:04:49;13.85;;;7.97;;
37407;SDS011;24866;50.248;8.252;2023-04-06T12:07:19;12.05;;;7.85;;
37407;SDS011;24866;50.248;8.252;2023-04-06T12:09:49;12.80;;;7.75;;
37407;SDS011;24866;50.248;8.252;2023-04-06T12:12:21;12.50;;;8.35;;
37407;SDS011;24866;50.248;8.252;2023-04-06T12:14:52;13.90;;;9.07;;
37407;SDS011;24866;50.248;8.252;2023-04-06T12:17:23;12.52;;;8.23;;
37407;SDS011;24866;50.248;8.252;2023-04-06T12:19:53;12.18;;;7.82;;
37407;SDS011;24866;50.248;8.252;2023-04-06T12:22:23;12.88;;;8.30;;
37407;SDS011;24866;50.248;8.252;2023-04-06T12:24:53;14.73;;;8.50;;
37407;SDS011;24866;50.248;8.252;2023-04-06T12:27:23;15.40;;;8.23;;
37407;SDS011;24866;50.248;8.252;2023-04-06T12:29:56;16.67;;;8.50;;
37407;SDS011;24866;50.248;8.252;2023-04-06T12:32:26;12.70;;;8.60;;
37407;SDS011;24866;50.248;8.252;2023-04-06T12:34:56;13.93;;;8.77;;
37407;SDS011;24866;50.248;8.252;2023-04-06T12:37:26;12.48;;;8.07;;
37407;SDS011;24866;50.248;8.252;2023-04-06T12:39:59;10.77;;;7.55;;
37407;SDS011;24866;50.248;8.252;2023-04-06T12:42:30;10.98;;;7.32;;
37407;SDS011;24866;50.248;8.252;2023-04-06T12:45:02;16.17;;;9.15;;
37407;SDS011;24866;50.248;8.252;2023-04-06T12:47:32;12.55;;;8.50;;
37407;SDS011;24866;50.248;8.252;2023-04-06T12:50:04;15.50;;;8.57;;
37407;SDS011;24866;50.248;8.252;2023-04-06T12:52:35;16.52;;;9.30;;
37407;SDS011;24866;50.248;8.252;2023-04-06T12:55:06;14.68;;;8.73;;
37407;SDS011;24866;50.248;8.252;2023-04-06T12:57:37;12.13;;;8.55;;
37407;SDS011;24866;50.248;8.252;2023-04-06T13:00:10;14.07;;;9.30;;
37407;SDS011;24866;50.248;8.252;2023-04-06T13:05:14;11.50;;;7.10;;
37407;SDS011;24866;50.248;8.252;2023-04-06T13:07:46;9.98;;;7.10;;
37407;SDS011;24866;50.248;8.252;2023-04-06T13:10:16;12.75;;;7.72;;
37407;SDS011;24866;50.248;8.252;2023-04-06T13:12:46;10.00;;;6.78;;
37407;SDS011;24866;50.248;8.252;2023-04-06T13:15:18;11.57;;;7.75;;
37407;SDS011;24866;50.248;8.252;2023-04-06T13:17:49;13.30;;;8.40;;
37407;SDS011;24866;50.248;8.252;2023-04-06T13:20:19;16.55;;;10.20;;
37407;SDS011;24866;50.248;8.252;2023-04-06T13:22:49;15.65;;;10.02;;
37407;SDS011;24866;50.248;8.252;2023-04-06T13:25:19;12.18;;;7.43;;
37407;SDS011;24866;50.248;8.252;2023-04-06T13:27:50;10.48;;;5.63;;
37407;SDS011;24866;50.248;8.252;2023-04-06T13:30:21;12.82;;;8.57;;
37407;SDS011;24866;50.248;8.252;2023-04-06T13:32:51;11.35;;;6.95;;
37407;SDS011;24866;50.248;8.252;2023-04-06T13:35:22;10.00;;;7.47;;
37407;SDS011;24866;50.248;8.252;2023-04-06T13:37:52;12.07;;;6.57;;
37407;SDS011;24866;50.248;8.252;2023-04-06T13:40:22;11.10;;;6.80;;
37407;SDS011;24866;50.248;8.252;2023-04-06T13:42:52;9.98;;;7.13;;
37407;SDS011;24866;50.248;8.252;2023-04-06T13:45:23;12.27;;;7.22;;
37407;SDS011;24866;50.248;8.252;2023-04-06T13:47:53;13.52;;;8.35;;
37407;SDS011;24866;50.248;8.252;2023-04-06T13:50:25;13.63;;;8.05;;
37407;SDS011;24866;50.248;8.252;2023-04-06T13:52:55;12.15;;;7.00;;
37407;SDS011;24866;50.248;8.252;2023-04-06T13:55:25;12.10;;;7.43;;
37407;SDS011;24866;50.248;8.252;2023-04-06T13:57:55;9.98;;;7.38;;
37407;SDS011;24866;50.248;8.252;2023-04-06T14:00:27;11.93;;;7.78;;
37407;SDS011;24866;50.248;8.252;2023-04-06T14:02:57;12.38;;;7.93;;
37407;SDS011;24866;50.248;8.252;2023-04-06T14:05:30;14.68;;;8.32;;
37407;SDS011;24866;50.248;8.252;2023-04-06T14:08:00;11.35;;;7.65;;
37407;SDS011;24866;50.248;8.252;2023-04-06T14:10:30;9.93;;;6.90;;
37407;SDS011;24866;50.248;8.252;2023-04-06T14:13:01;13.25;;;9.07;;
37407;SDS011;24866;50.248;8.252;2023-04-06T14:15:32;16.40;;;8.23;;
37407;SDS011;24866;50.248;8.252;2023-04-06T14:18:02;15.40;;;8.32;;
37407;SDS011;24866;50.248;8.252;2023-04-06T14:20:32;12.57;;;7.35;;
37407;SDS011;24866;50.248;8.252;2023-04-06T14:23:03;11.90;;;6.95;;
37407;SDS011;24866;50.248;8.252;2023-04-06T14:25:33;13.30;;;8.70;;
37407;SDS011;24866;50.248;8.252;2023-04-06T14:28:03;13.18;;;7.30;;
37407;SDS011;24866;50.248;8.252;2023-04-06T14:30:34;10.07;;;6.55;;
37407;SDS011;24866;50.248;8.252;2023-04-06T14:33:04;12.40;;;7.05;;
37407;SDS011;24866;50.248;8.252;2023-04-06T14:35:37;11.93;;;7.03;;
37407;SDS011;24866;50.248;8.252;2023-04-06T14:38:07;10.90;;;6.55;;
37407;SDS011;24866;50.248;8.252;2023-04-06T14:40:38;11.20;;;6.47;;
37407;SDS011;24866;50.248;8.252;2023-04-06T14:43:08;12.02;;;6.55;;
37407;SDS011;24866;50.248;8.252;2023-04-06T14:45:39;10.27;;;5.78;;
37407;SDS011;24866;50.248;8.252;2023-04-06T14:48:09;9.45;;;6.43;;
37407;SDS011;24866;50.248;8.252;2023-04-06T14:50:40;11.50;;;6.18;;
37407;SDS011;24866;50.248;8.252;2023-04-06T14:53:14;9.95;;;6.03;;
37407;SDS011;24866;50.248;8.252;2023-04-06T14:55:44;10.43;;;5.57;;
37407;SDS011;24866;50.248;8.252;2023-04-06T14:58:14;7.35;;;4.13;;
37407;SDS011;24866;50.248;8.252;2023-04-06T15:00:45;7.68;;;4.40;;
37407;SDS011;24866;50.248;8.252;2023-04-06T15:03:16;7.32;;;4.53;;
37407;SDS011;24866;50.248;8.252;2023-04-06T15:05:46;7.72;;;5.22;;
37407;SDS011;24866;50.248;8.252;2023-04-06T15:08:16;7.28;;;4.70;;
37407;SDS011;24866;50.248;8.252;2023-04-06T15:10:48;10.20;;;6.07;;
37407;SDS011;24866;50.248;8.252;2023-04-06T15:13:19;8.68;;;5.20;;